createdAt,value
2023-04-21T00:01:56.448Z,64.29
2023-04-21T00:03:59.494Z,64.08
2023-04-21T00:06:01.065Z,63.40
2023-04-21T00:08:02.727Z,64.05
2023-04-21T00:10:05.014Z,64.28
2023-04-21T00:12:06.895Z,63.77
2023-04-21T00:14:08.525Z,63.72
2023-04-21T00:16:10.388Z,63.75
2023-04-21T00:18:12.031Z,63.94
2023-04-21T00:20:15.295Z,63.68
2023-04-21T00:22:16.807Z,63.59
2023-04-21T00:24:18.362Z,64.01
2023-04-21T00:26:20.091Z,63.59
2023-04-21T00:28:21.777Z,63.86
2023-04-21T00:30:23.356Z,63.36
2023-04-21T00:32:25.061Z,63.64
2023-04-21T00:34:26.669Z,63.06
2023-04-21T00:36:29.612Z,63.43
2023-04-21T00:38:31.199Z,63.59
2023-04-21T00:40:32.804Z,63.48
2023-04-21T00:42:34.405Z,63.43
2023-04-21T00:44:36.108Z,63.24
2023-04-21T00:46:37.659Z,63.33
2023-04-21T00:48:39.367Z,63.47
2023-04-21T00:50:41.432Z,63.05
2023-04-21T00:52:44.994Z,62.63
2023-04-21T00:54:46.666Z,63.34
2023-04-21T00:56:48.210Z,62.78
2023-04-21T00:58:50.012Z,62.59
2023-04-21T01:00:51.615Z,62.28
2023-04-21T01:02:53.602Z,62.73
2023-04-21T01:04:58.413Z,62.66
2023-04-21T01:06:59.981Z,62.26
2023-04-21T01:09:03.245Z,62.46
2023-04-21T01:11:10.173Z,62.59
2023-04-21T01:13:11.692Z,62.55
2023-04-21T01:15:14.307Z,62.75
2023-04-21T01:17:15.889Z,63.02
2023-04-21T01:19:17.715Z,63.09
2023-04-21T01:21:19.825Z,62.79
2023-04-21T01:23:22.733Z,63.06
2023-04-21T01:25:24.250Z,63.08
2023-04-21T01:27:25.834Z,63.41
2023-04-21T01:29:27.496Z,63.38
2023-04-21T01:31:29.088Z,63.19
2023-04-21T01:33:31.094Z,63.15
2023-04-21T01:35:32.748Z,63.35
2023-04-21T01:37:34.836Z,63.12
2023-04-21T01:39:39.164Z,62.73
2023-04-21T01:41:40.817Z,63.49
2023-04-21T01:43:42.518Z,63.53
2023-04-21T01:45:44.306Z,63.81
2023-04-21T01:47:45.995Z,63.53
2023-04-21T01:49:47.534Z,64.55
2023-04-21T01:51:49.159Z,64.85
2023-04-21T01:53:50.754Z,65.31
2023-04-21T01:55:53.710Z,65.25
2023-04-21T01:57:55.576Z,65.93
2023-04-21T01:59:57.148Z,65.96
2023-04-21T02:01:58.819Z,65.71
2023-04-21T02:04:00.650Z,66.32
2023-04-21T02:06:07.077Z,65.50
2023-04-21T02:08:08.596Z,66.14
2023-04-21T02:10:10.725Z,66.68
2023-04-21T02:12:13.892Z,66.81
2023-04-21T02:14:15.504Z,66.86
2023-04-21T02:16:17.290Z,66.98
2023-04-21T02:18:18.893Z,66.87
2023-04-21T02:20:20.859Z,67.65
2023-04-21T02:22:22.651Z,67.32
2023-04-21T02:24:24.371Z,67.21
2023-04-21T02:26:25.932Z,67.61
2023-04-21T02:28:28.964Z,67.54
2023-04-21T02:30:30.560Z,67.11
2023-04-21T02:32:32.220Z,67.93
2023-04-21T02:34:33.876Z,67.23
2023-04-21T02:36:35.422Z,67.74
2023-04-21T02:38:37.065Z,67.48
2023-04-21T02:40:38.720Z,67.66
2023-04-21T02:42:40.289Z,67.89
2023-04-21T02:44:43.436Z,67.58
2023-04-21T02:46:46.982Z,67.70
2023-04-21T02:48:48.631Z,68.08
2023-04-21T02:50:50.928Z,67.85
2023-04-21T02:52:52.596Z,67.56
2023-04-21T02:54:54.357Z,68.08
2023-04-21T02:56:56.013Z,67.66
2023-04-21T02:58:57.678Z,67.45
2023-04-21T03:01:00.926Z,67.77
2023-04-21T03:03:03.346Z,67.07
2023-04-21T03:05:05.226Z,66.88
2023-04-21T03:07:12.042Z,67.00
2023-04-21T03:09:13.591Z,67.05
2023-04-21T03:11:15.090Z,67.70
2023-04-21T03:13:16.631Z,67.14
2023-04-21T03:15:18.366Z,67.85
2023-04-21T03:17:21.301Z,67.61
2023-04-21T03:19:22.932Z,67.73
2023-04-21T03:21:24.538Z,68.04
2023-04-21T03:23:26.176Z,68.50
2023-04-21T03:25:28.062Z,68.58
2023-04-21T03:27:29.629Z,68.85
2023-04-21T03:29:31.324Z,69.45
2023-04-21T03:31:33.007Z,69.56
2023-04-21T03:33:35.935Z,69.62
2023-04-21T03:35:37.529Z,69.90
2023-04-21T03:37:39.263Z,69.16
2023-04-21T03:39:40.870Z,69.80
2023-04-21T03:41:42.677Z,69.73
2023-04-21T03:43:44.247Z,70.30
2023-04-21T03:45:45.937Z,69.55
2023-04-21T03:47:47.583Z,69.50
2023-04-21T03:49:50.626Z,70.10
2023-04-21T03:51:52.168Z,70.87
2023-04-21T03:53:53.724Z,70.04
2023-04-21T03:55:55.228Z,70.16
2023-04-21T03:57:56.775Z,70.50
2023-04-21T03:59:58.556Z,70.38
2023-04-21T04:02:00.284Z,70.93
2023-04-21T04:04:02.311Z,70.23
2023-04-21T04:06:05.960Z,70.57
2023-04-21T04:08:07.833Z,71.04
2023-04-21T04:10:09.583Z,70.44
2023-04-21T04:12:11.789Z,70.42
2023-04-21T04:14:13.658Z,70.52
2023-04-21T04:16:15.274Z,70.82
2023-04-21T04:18:17.215Z,70.54
2023-04-21T04:20:18.769Z,70.54
2023-04-21T04:22:21.770Z,70.85
2023-04-21T04:24:23.343Z,70.65
2023-04-21T04:26:25.141Z,71.08
2023-04-21T04:28:27.006Z,70.88
2023-04-21T04:30:29.199Z,70.50
2023-04-21T04:32:30.834Z,70.50
2023-04-21T04:34:32.461Z,70.72
2023-04-21T04:36:34.010Z,70.62
2023-04-21T04:38:37.204Z,70.57
2023-04-21T04:40:38.689Z,70.46
2023-04-21T04:42:40.263Z,70.94
2023-04-21T04:44:41.959Z,71.05
2023-04-21T04:46:43.545Z,71.00
2023-04-21T04:48:45.178Z,70.82
2023-04-21T04:50:47.463Z,70.75
2023-04-21T04:52:49.057Z,70.65
2023-04-21T04:54:52.251Z,70.74
2023-04-21T04:56:53.927Z,70.64
2023-04-21T04:58:55.556Z,70.81
2023-04-21T05:00:57.201Z,70.53
2023-04-21T05:02:59.390Z,70.65
2023-04-21T05:05:01.320Z,71.04
2023-04-21T05:07:03.201Z,70.60
2023-04-21T05:09:04.838Z,70.59
2023-04-21T05:11:08.138Z,70.85
2023-04-21T05:13:09.805Z,70.48
2023-04-21T05:15:11.646Z,70.84
2023-04-21T05:17:13.276Z,70.28
2023-04-21T05:19:16.286Z,70.49
2023-04-21T05:21:23.895Z,69.73
2023-04-21T05:23:25.549Z,70.26
2023-04-21T05:25:27.088Z,70.39
2023-04-21T05:27:30.045Z,70.29
2023-04-21T05:29:31.646Z,70.06
2023-04-21T05:31:33.382Z,69.98
2023-04-21T05:33:35.011Z,69.67
2023-04-21T05:35:38.969Z,69.54
2023-04-21T05:37:40.712Z,69.62
2023-04-21T05:39:42.609Z,69.73
2023-04-21T05:41:44.404Z,69.96
2023-04-21T05:43:47.776Z,69.21
2023-04-21T05:45:49.454Z,69.93
2023-04-21T05:47:50.986Z,68.89
2023-04-21T05:49:52.913Z,69.28
2023-04-21T05:51:54.671Z,69.51
2023-04-21T05:53:56.244Z,68.60
2023-04-21T05:55:58.230Z,69.12
2023-04-21T05:58:00.194Z,68.33
2023-04-21T06:00:03.774Z,68.54
2023-04-21T06:02:05.514Z,68.43
2023-04-21T06:04:08.259Z,68.42
2023-04-21T06:06:10.267Z,68.36
2023-04-21T06:08:12.067Z,68.01
2023-04-21T06:10:14.192Z,67.83
2023-04-21T06:12:15.742Z,68.23
2023-04-21T06:14:17.611Z,67.90
2023-04-21T06:16:20.699Z,67.99
2023-04-21T06:18:22.592Z,67.26
2023-04-21T06:20:24.495Z,67.70
2023-04-21T06:22:26.054Z,67.75
2023-04-21T06:24:32.207Z,66.84
2023-04-21T06:26:33.746Z,66.73
2023-04-21T06:28:36.807Z,66.74
2023-04-21T06:30:38.650Z,66.53
2023-04-21T06:32:41.629Z,66.08
2023-04-21T06:34:43.497Z,66.08
2023-04-21T06:36:45.389Z,65.79
2023-04-21T06:38:47.335Z,65.71
2023-04-21T06:40:49.032Z,65.36
2023-04-21T06:42:50.670Z,65.38
2023-04-21T06:44:52.354Z,64.88
2023-04-21T06:46:54.033Z,64.39
2023-04-21T06:48:57.231Z,64.43
2023-04-21T06:50:59.113Z,63.82
2023-04-21T06:53:00.690Z,64.16
2023-04-21T06:55:02.248Z,64.21
2023-04-21T06:57:03.962Z,63.05
2023-04-21T06:59:05.608Z,63.32
2023-04-21T07:01:07.320Z,62.78
2023-04-21T07:03:09.007Z,62.70
2023-04-21T07:05:12.062Z,62.64
2023-04-21T07:07:13.576Z,62.20
2023-04-21T07:09:15.163Z,61.12
2023-04-21T07:11:16.788Z,61.30
2023-04-21T07:13:18.464Z,61.13
2023-04-21T07:15:20.399Z,60.99
2023-04-21T07:17:21.942Z,61.02
2023-04-21T07:19:23.585Z,60.16
2023-04-21T07:21:26.538Z,60.36
2023-04-21T07:23:28.125Z,60.96
2023-04-21T07:25:29.822Z,61.00
2023-04-21T07:27:31.421Z,61.29
2023-04-21T07:29:33.080Z,60.56
2023-04-21T07:31:34.713Z,59.80
2023-04-21T07:33:36.800Z,59.75
2023-04-21T07:35:38.361Z,59.99
2023-04-21T07:37:41.336Z,59.27
2023-04-21T07:39:43.281Z,59.44
2023-04-21T07:41:45.128Z,58.68
2023-04-21T07:43:46.817Z,58.56
2023-04-21T07:45:48.398Z,58.41
2023-04-21T07:47:58.197Z,57.77
2023-04-21T07:49:59.879Z,58.17
2023-04-21T07:52:01.460Z,57.53
2023-04-21T07:54:04.476Z,56.99
2023-04-21T07:56:06.649Z,57.12
2023-04-21T07:58:08.293Z,57.19
2023-04-21T08:00:11.559Z,56.40
2023-04-21T08:02:13.419Z,56.47
2023-04-21T08:04:15.360Z,56.28
2023-04-21T08:06:17.411Z,55.64
2023-04-21T08:08:19.318Z,55.46
2023-04-21T08:10:22.314Z,55.06
2023-04-21T08:12:23.916Z,55.47
2023-04-21T08:14:25.456Z,55.27
2023-04-21T08:16:27.311Z,55.37
2023-04-21T08:18:29.080Z,55.06
2023-04-21T08:20:30.834Z,55.54
2023-04-21T08:22:32.589Z,54.67
2023-04-21T08:24:34.287Z,54.38
2023-04-21T08:26:37.153Z,54.43
2023-04-21T08:28:38.741Z,53.94
2023-04-21T08:30:40.324Z,53.52
2023-04-21T08:32:42.283Z,53.72
2023-04-21T08:34:43.902Z,53.75
2023-04-21T08:36:45.686Z,53.09
2023-04-21T08:38:47.502Z,53.24
2023-04-21T08:40:49.099Z,52.40
2023-04-21T08:42:52.103Z,52.72
2023-04-21T08:44:53.738Z,52.50
2023-04-21T08:46:56.649Z,52.45
2023-04-21T08:48:58.771Z,52.42
2023-04-21T08:51:01.956Z,52.33
2023-04-21T08:53:03.530Z,52.01
2023-04-21T08:55:06.592Z,51.44
2023-04-21T08:57:15.288Z,52.08
2023-04-21T08:59:19.341Z,51.43
2023-04-21T09:01:21.176Z,51.55
2023-04-21T09:03:26.358Z,51.11
2023-04-21T09:05:29.989Z,50.78
2023-04-21T09:07:34.111Z,50.72
2023-04-21T09:09:51.883Z,51.94
2023-04-21T09:11:54.948Z,50.83
2023-04-21T09:13:57.505Z,50.10
2023-04-21T09:16:02.219Z,50.81
2023-04-21T09:18:04.127Z,50.41
2023-04-21T09:20:13.934Z,51.58
2023-04-21T09:22:15.999Z,50.22
2023-04-21T09:24:17.763Z,50.11
2023-04-21T09:26:20.406Z,50.01
2023-04-21T09:28:22.032Z,50.60
2023-04-21T09:30:23.770Z,50.36
2023-04-21T09:32:26.733Z,49.97
2023-04-21T09:34:28.366Z,49.98
2023-04-21T09:36:31.224Z,50.00
2023-04-21T09:38:32.906Z,49.52
2023-04-21T09:40:34.534Z,49.41
2023-04-21T09:42:38.916Z,49.35
2023-04-21T09:44:52.478Z,48.83
2023-04-21T09:47:01.114Z,49.38
2023-04-21T09:49:04.913Z,49.10
2023-04-21T09:53:15.997Z,49.63
2023-04-21T09:55:27.970Z,50.06
2023-04-21T09:57:32.321Z,49.19
2023-04-21T09:59:40.676Z,48.62
2023-04-21T10:01:48.706Z,50.06
2023-04-21T10:03:52.082Z,48.92
2023-04-21T10:05:56.262Z,48.96
2023-04-21T10:08:00.512Z,47.99
2023-04-21T10:10:03.102Z,48.41
2023-04-21T10:12:07.009Z,47.78
2023-04-21T10:14:34.268Z,48.66
2023-04-21T10:16:39.694Z,47.62
2023-04-21T10:18:43.965Z,48.34
2023-04-21T10:31:32.029Z,49.80
2023-04-21T10:33:33.852Z,46.87
2023-04-21T10:35:59.595Z,48.61
2023-04-21T10:38:02.584Z,46.82
2023-04-21T10:40:07.676Z,46.23
2023-04-21T10:42:20.642Z,47.85
2023-04-21T10:44:22.549Z,45.83
2023-04-21T10:46:36.118Z,47.72
2023-04-21T10:48:37.801Z,46.08
2023-04-21T10:50:39.785Z,46.62
2023-04-21T10:52:44.886Z,46.61
2023-04-21T10:55:10.696Z,48.08
2023-04-21T10:57:14.089Z,45.73
2023-04-21T10:59:15.712Z,45.65
2023-04-21T11:01:17.690Z,45.90
2023-04-21T11:03:20.906Z,45.46
2023-04-21T11:05:28.558Z,46.46
2023-04-21T11:07:30.270Z,45.74
2023-04-21T11:09:32.386Z,45.49
2023-04-21T11:11:33.927Z,45.90
2023-04-21T11:13:35.561Z,44.97
2023-04-21T11:15:37.100Z,45.28
2023-04-21T11:17:39.182Z,44.91
2023-04-21T11:19:47.002Z,46.04
2023-04-21T11:21:49.222Z,44.52
2023-04-21T11:23:52.406Z,43.94
2023-04-21T11:25:57.023Z,43.98
2023-04-21T11:27:58.690Z,43.77
2023-04-21T11:30:04.125Z,43.88
2023-04-21T11:32:06.674Z,43.62
2023-04-21T11:34:12.536Z,43.44
2023-04-21T11:36:26.575Z,46.16
2023-04-21T11:38:28.226Z,44.12
2023-04-21T11:40:30.017Z,43.10
2023-04-21T11:42:32.152Z,42.85
2023-04-21T11:44:36.021Z,43.50
2023-04-21T11:46:38.056Z,43.10
2023-04-21T11:48:40.052Z,43.08
2023-04-21T11:50:47.153Z,43.34
2023-04-21T11:52:50.387Z,42.65
2023-04-21T11:54:56.384Z,43.19
2023-04-21T11:56:58.759Z,42.84
2023-04-21T11:59:06.916Z,43.59
2023-04-21T12:01:08.812Z,42.82
2023-04-21T12:03:14.014Z,43.08
2023-04-21T12:05:15.683Z,42.41
2023-04-21T12:07:23.177Z,44.14
2023-04-21T12:09:26.679Z,41.83
2023-04-21T12:11:28.612Z,41.15
2023-04-21T12:13:30.315Z,41.64
2023-04-21T12:15:31.930Z,41.23
2023-04-21T12:17:43.501Z,42.56
2023-04-21T12:19:45.084Z,41.31
2023-04-21T12:21:46.825Z,40.31
2023-04-21T12:23:48.483Z,40.50
2023-04-21T12:25:51.380Z,41.03
2023-04-21T12:27:57.651Z,41.26
2023-04-21T12:29:59.232Z,39.79
2023-04-21T12:32:01.458Z,39.67
2023-04-21T12:34:03.142Z,39.53
2023-04-21T12:36:04.944Z,39.23
2023-04-21T12:38:06.861Z,40.56
2023-04-21T12:40:09.467Z,40.41
2023-04-21T12:42:12.463Z,39.58
2023-04-21T12:44:16.783Z,39.68
2023-04-21T12:46:18.440Z,38.75
2023-04-21T12:48:20.071Z,37.97
2023-04-21T12:50:22.020Z,38.02
2023-04-21T12:52:23.691Z,39.26
2023-04-21T12:54:25.469Z,38.92
2023-04-21T12:56:27.388Z,39.46
2023-04-21T12:58:30.370Z,38.56
2023-04-21T13:00:32.082Z,36.57
2023-04-21T13:02:33.787Z,37.94
2023-04-21T13:04:35.551Z,37.25
2023-04-21T13:06:38.880Z,36.45
2023-04-21T13:08:40.401Z,36.77
2023-04-21T13:10:42.133Z,36.05
2023-04-21T13:12:43.780Z,34.91
2023-04-21T13:14:46.661Z,35.64
2023-04-21T13:16:48.335Z,35.07
2023-04-21T13:18:50.093Z,36.00
2023-04-21T13:20:51.667Z,36.46
2023-04-21T13:22:53.366Z,36.64
2023-04-21T13:24:54.897Z,35.88
2023-04-21T13:26:56.560Z,36.04
2023-04-21T13:28:58.332Z,34.48
2023-04-21T13:31:01.761Z,36.38
2023-04-21T13:33:04.221Z,35.46
2023-04-21T13:35:06.553Z,35.86
2023-04-21T13:37:08.234Z,35.16
2023-04-21T13:39:11.565Z,34.68
2023-04-21T13:41:13.141Z,34.58
2023-04-21T13:43:14.872Z,34.77
2023-04-21T13:45:16.842Z,35.18
2023-04-21T13:47:20.312Z,34.15
2023-04-21T13:49:22.169Z,36.04
2023-04-21T13:51:23.818Z,35.35
2023-04-21T13:53:25.405Z,34.59
2023-04-21T13:55:27.287Z,35.26
2023-04-21T13:57:28.897Z,35.98
2023-04-21T13:59:30.789Z,35.66
2023-04-21T14:01:32.625Z,35.23
2023-04-21T14:03:36.507Z,36.75
2023-04-21T14:05:39.145Z,35.46
2023-04-21T14:07:42.488Z,36.29
2023-04-21T14:09:44.189Z,35.58
2023-04-21T14:11:46.081Z,35.98
2023-04-21T14:14:00.809Z,36.15
2023-04-21T14:16:07.425Z,35.93
2023-04-21T14:18:09.187Z,36.27
2023-04-21T14:20:12.465Z,37.09
2023-04-21T14:22:14.129Z,36.68
2023-04-21T14:24:15.720Z,35.56
2023-04-21T14:26:17.374Z,36.63
2023-04-21T14:28:19.074Z,35.51
2023-04-21T14:30:20.927Z,35.69
2023-04-21T14:32:22.602Z,35.65
2023-04-21T14:34:26.006Z,35.71
2023-04-21T14:36:29.045Z,35.43
2023-04-21T14:38:30.872Z,37.08
2023-04-21T14:40:32.495Z,36.39
2023-04-21T14:42:34.130Z,36.29
2023-04-21T14:44:38.793Z,35.59
2023-04-21T14:46:40.650Z,34.22
2023-04-21T14:48:42.609Z,34.29
2023-04-21T14:50:44.291Z,34.42
2023-04-21T14:52:47.259Z,34.24
2023-04-21T14:54:51.313Z,35.44
2023-04-21T14:57:00.425Z,34.81
2023-04-21T14:59:05.186Z,34.77
2023-04-21T15:01:06.871Z,34.84
2023-04-21T15:03:08.781Z,35.30
2023-04-21T15:05:10.427Z,34.97
2023-04-21T15:07:12.222Z,34.83
2023-04-21T15:09:15.196Z,34.86
2023-04-21T15:11:16.896Z,34.40
2023-04-21T15:13:18.517Z,35.25
2023-04-21T15:15:20.102Z,35.53
2023-04-21T15:17:21.971Z,35.68
2023-04-21T15:19:25.586Z,34.95
2023-04-21T15:21:27.531Z,35.80
2023-04-21T15:23:29.166Z,34.99
2023-04-21T15:25:32.143Z,35.67
2023-04-21T15:27:33.849Z,36.37
2023-04-21T15:29:35.657Z,36.13
2023-04-21T15:31:37.642Z,35.83
2023-04-21T15:33:39.280Z,35.63
2023-04-21T15:35:40.913Z,35.67
2023-04-21T15:37:42.468Z,36.19
2023-04-21T15:39:44.050Z,36.12
2023-04-21T15:41:47.266Z,35.98
2023-04-21T15:43:48.838Z,36.22
2023-04-21T15:45:50.618Z,36.34
2023-04-21T15:47:52.406Z,36.40
2023-04-21T15:49:54.131Z,36.52
2023-04-21T15:51:56.297Z,36.67
2023-04-21T15:53:58.020Z,36.65
2023-04-21T15:55:59.611Z,36.27
2023-04-21T15:58:02.529Z,36.53
2023-04-21T16:00:05.670Z,37.10
2023-04-21T16:02:07.580Z,36.81
2023-04-21T16:04:09.419Z,36.16
2023-04-21T16:06:11.396Z,35.86
2023-04-21T16:08:13.120Z,36.37
2023-04-21T16:10:14.737Z,36.74
2023-04-21T16:12:17.088Z,36.14
2023-04-21T16:14:20.141Z,36.42
2023-04-21T16:16:22.242Z,37.15
2023-04-21T16:18:24.320Z,36.91
2023-04-21T16:20:26.183Z,36.92
2023-04-21T16:22:32.736Z,37.56
2023-04-21T16:24:34.595Z,36.26
2023-04-21T16:26:36.386Z,36.36
2023-04-21T16:28:38.083Z,36.91
2023-04-21T16:30:41.365Z,37.17
2023-04-21T16:32:42.957Z,37.45
2023-04-21T16:34:44.588Z,37.01
2023-04-21T16:36:46.298Z,37.59
2023-04-21T16:38:48.055Z,37.76
2023-04-21T16:40:49.769Z,37.76
2023-04-21T16:42:51.708Z,37.69
2023-04-21T16:44:53.303Z,38.03
2023-04-21T16:46:56.389Z,37.80
2023-04-21T16:48:58.867Z,38.21
2023-04-21T16:51:00.815Z,38.49
2023-04-21T16:53:02.610Z,38.75
2023-04-21T16:55:04.787Z,38.74
2023-04-21T16:57:06.440Z,38.93
2023-04-21T16:59:08.172Z,38.73
2023-04-21T17:01:09.728Z,39.02
2023-04-21T17:03:12.763Z,39.82
2023-04-21T17:05:14.421Z,39.80
2023-04-21T17:07:16.079Z,39.31
2023-04-21T17:09:17.605Z,38.32
2023-04-21T17:11:19.255Z,39.24
2023-04-21T17:13:20.814Z,39.23
2023-04-21T17:15:22.425Z,39.27
2023-04-21T17:17:24.386Z,39.47
2023-04-21T17:19:27.476Z,39.42
2023-04-21T17:21:29.046Z,39.20
2023-04-21T17:23:30.749Z,39.78
2023-04-21T17:25:32.444Z,40.18
2023-04-21T17:27:36.132Z,40.07
2023-04-21T17:29:37.782Z,39.71
2023-04-21T17:31:39.379Z,39.60
2023-04-21T17:33:41.536Z,39.74
2023-04-21T17:36:02.328Z,40.49
2023-04-21T17:38:04.836Z,39.56
2023-04-21T17:40:07.720Z,40.13
2023-04-21T17:42:09.483Z,39.55
2023-04-21T17:44:11.038Z,39.57
2023-04-21T17:46:12.611Z,40.00
2023-04-21T17:48:14.604Z,39.69
2023-04-21T17:50:16.304Z,39.96
2023-04-21T17:52:19.187Z,40.34
2023-04-21T17:54:20.843Z,40.47
2023-04-21T17:56:22.829Z,40.36
2023-04-21T17:58:26.113Z,40.92
2023-04-21T18:00:27.712Z,40.55
2023-04-21T18:02:29.417Z,40.69
2023-04-21T18:04:31.089Z,40.90
2023-04-21T18:06:32.694Z,40.79
2023-04-21T18:08:35.640Z,41.62
2023-04-21T18:10:37.396Z,41.56
2023-04-21T18:12:39.015Z,42.11
2023-04-21T18:14:40.767Z,41.99
2023-04-21T18:16:42.556Z,42.56
2023-04-21T18:18:44.245Z,43.02
2023-04-21T18:20:45.932Z,42.78
2023-04-21T18:22:48.148Z,43.50
2023-04-21T18:24:51.117Z,43.37
2023-04-21T18:26:52.668Z,43.98
2023-04-21T18:28:54.989Z,44.18
2023-04-21T18:30:56.749Z,44.63
2023-04-21T18:32:58.404Z,44.63
2023-04-21T18:35:00.787Z,45.32
2023-04-21T18:37:02.450Z,45.38
2023-04-21T18:39:04.074Z,45.09
2023-04-21T18:41:07.032Z,45.63
2023-04-21T18:43:09.272Z,45.65
2023-04-21T18:45:11.401Z,45.94
2023-04-21T18:47:13.350Z,46.13
2023-04-21T18:49:15.011Z,46.31
2023-04-21T18:51:16.907Z,46.91
2023-04-21T18:53:18.460Z,47.49
2023-04-21T18:55:20.495Z,47.16
2023-04-21T18:57:23.404Z,47.67
2023-04-21T18:59:24.937Z,48.08
2023-04-21T19:01:27.527Z,47.96
2023-04-21T19:03:29.527Z,47.92
2023-04-21T19:05:31.935Z,48.15
2023-04-21T19:07:35.050Z,48.38
2023-04-21T19:09:36.677Z,48.65
2023-04-21T19:11:38.510Z,48.75
2023-04-21T19:13:41.752Z,48.91
2023-04-21T19:15:43.555Z,48.80
2023-04-21T19:17:45.178Z,49.34
2023-04-21T19:19:46.864Z,49.73
2023-04-21T19:21:48.600Z,49.60
2023-04-21T19:23:50.798Z,50.20
2023-04-21T19:25:52.572Z,50.39
2023-04-21T19:27:54.262Z,50.24
2023-04-21T19:29:57.449Z,50.18
2023-04-21T19:31:59.168Z,50.97
2023-04-21T19:34:00.895Z,50.45
2023-04-21T19:36:03.067Z,50.68
2023-04-21T19:38:04.677Z,50.54
2023-04-21T19:40:07.665Z,50.87
2023-04-21T19:42:09.335Z,50.75
2023-04-21T19:44:10.970Z,50.73
2023-04-21T19:46:14.097Z,51.16
2023-04-21T19:48:16.096Z,50.81
2023-04-21T19:50:17.922Z,51.49
2023-04-21T19:52:19.941Z,51.47
2023-04-21T19:54:21.527Z,51.34
2023-04-21T19:56:23.091Z,51.94
2023-04-21T19:58:38.868Z,52.05
2023-04-21T20:00:41.720Z,52.45
2023-04-21T20:02:44.726Z,52.34
2023-04-21T20:04:46.659Z,52.22
2023-04-21T20:06:48.518Z,52.58
2023-04-21T20:08:50.441Z,52.49
2023-04-21T20:10:54.245Z,52.55
2023-04-21T20:12:55.903Z,52.59
2023-04-21T20:15:00.772Z,52.45
2023-04-21T20:17:02.821Z,52.76
2023-04-21T20:19:05.699Z,52.57
2023-04-21T20:21:07.278Z,53.49
2023-04-21T20:23:08.776Z,53.34
2023-04-21T20:25:10.510Z,53.65
2023-04-21T20:27:12.064Z,53.88
2023-04-21T20:29:13.932Z,53.97
2023-04-21T20:31:15.481Z,53.92
2023-04-21T20:33:17.124Z,53.61
2023-04-21T20:35:20.005Z,53.43
2023-04-21T20:37:22.067Z,54.15
2023-04-21T20:39:23.809Z,54.11
2023-04-21T20:41:25.418Z,54.75
2023-04-21T20:43:27.043Z,54.77
2023-04-21T20:45:28.673Z,54.85
2023-04-21T20:47:30.627Z,54.52
2023-04-21T20:49:32.647Z,54.88
2023-04-21T20:51:40.741Z,53.60
2023-04-21T20:53:42.283Z,54.66
2023-04-21T20:55:43.887Z,54.90
2023-04-21T20:57:45.424Z,54.55
2023-04-21T20:59:46.990Z,54.85
2023-04-21T21:01:48.611Z,54.84
2023-04-21T21:03:50.345Z,54.71
2023-04-21T21:05:52.443Z,54.89
2023-04-21T21:07:56.258Z,54.51
2023-04-21T21:09:57.944Z,55.09
2023-04-21T21:11:59.645Z,55.03
2023-04-21T21:14:01.435Z,55.65
2023-04-21T21:16:03.117Z,55.57
2023-04-21T21:18:04.847Z,56.08
2023-04-21T21:20:07.782Z,55.60
2023-04-21T21:22:09.573Z,55.98
2023-04-21T21:24:12.437Z,56.05
2023-04-21T21:26:14.076Z,56.47
2023-04-21T21:28:15.628Z,57.15
2023-04-21T21:30:17.288Z,57.41
2023-04-21T21:32:18.958Z,57.13
2023-04-21T21:34:20.823Z,56.96
2023-04-21T21:36:22.432Z,57.13
2023-04-21T21:38:24.017Z,57.00
2023-04-21T21:40:27.413Z,57.75
2023-04-21T21:42:29.128Z,57.56
2023-04-21T21:44:30.676Z,57.60
2023-04-21T21:46:32.446Z,57.72
2023-04-21T21:48:34.187Z,57.90
2023-04-21T21:50:35.768Z,57.26
2023-04-21T21:52:37.341Z,57.97
2023-04-21T21:54:38.866Z,57.57
2023-04-21T21:56:41.907Z,57.53
2023-04-21T21:58:43.576Z,57.88
2023-04-21T22:00:45.139Z,57.89
2023-04-21T22:02:46.850Z,57.94
2023-04-21T22:04:51.057Z,57.35
2023-04-21T22:06:52.738Z,57.41
2023-04-21T22:08:54.252Z,57.94
2023-04-21T22:10:55.835Z,57.62
2023-04-21T22:12:58.712Z,57.81
2023-04-21T22:15:00.264Z,58.05
2023-04-21T22:17:02.227Z,58.07
2023-04-21T22:19:03.766Z,58.06
2023-04-21T22:21:05.767Z,58.11
2023-04-21T22:23:07.482Z,57.81
2023-04-21T22:25:09.760Z,57.64
2023-04-21T22:27:11.298Z,57.63
2023-04-21T22:29:14.162Z,57.63
2023-04-21T22:31:15.837Z,57.42
2023-04-21T22:33:17.395Z,57.75
2023-04-21T22:35:19.154Z,57.39
2023-04-21T22:37:20.780Z,57.46
2023-04-21T22:39:22.370Z,57.50
2023-04-21T22:41:23.955Z,57.62
2023-04-21T22:43:25.531Z,57.72
2023-04-21T22:45:28.544Z,57.50
2023-04-21T22:47:32.140Z,57.65
2023-04-21T22:49:33.683Z,57.04
2023-04-21T22:51:35.236Z,57.92
2023-04-21T22:53:36.922Z,58.02
2023-04-21T22:55:38.734Z,58.07
2023-04-21T22:57:40.389Z,57.90
2023-04-21T22:59:41.907Z,58.00
2023-04-21T23:01:44.924Z,57.90
2023-04-21T23:03:46.625Z,57.62
2023-04-21T23:05:48.243Z,57.58
2023-04-21T23:07:49.841Z,58.42
2023-04-21T23:09:51.492Z,57.89
2023-04-21T23:11:53.369Z,58.31
2023-04-21T23:13:54.904Z,58.16
2023-04-21T23:15:56.409Z,57.88
2023-04-21T23:17:59.382Z,58.52
2023-04-21T23:20:00.990Z,58.62
2023-04-21T23:22:02.692Z,58.49
2023-04-21T23:24:04.532Z,58.14
2023-04-21T23:26:06.093Z,58.43
2023-04-21T23:28:07.621Z,58.30
2023-04-21T23:30:10.376Z,59.24
2023-04-21T23:32:12.122Z,59.16
2023-04-21T23:34:15.353Z,59.09
2023-04-21T23:36:16.999Z,58.99
2023-04-21T23:38:18.514Z,58.88
2023-04-21T23:40:20.219Z,59.63
2023-04-21T23:42:21.806Z,59.47
2023-04-21T23:44:23.419Z,59.67
2023-04-21T23:46:25.072Z,59.70
2023-04-21T23:48:26.667Z,59.59
2023-04-21T23:50:29.692Z,59.74
2023-04-21T23:52:31.444Z,60.20
2023-04-21T23:54:33.049Z,60.56
2023-04-21T23:56:34.660Z,60.24
2023-04-21T23:58:36.365Z,60.72
